sensor_id;sensor_type;location;lat;lon;timestamp;P1;durP1;ratioP1;P2;durP2;ratioP2
76731;SDS011;65656;51.130;13.658;2023-04-21T00:02:25;44.55;;;40.42;;
76731;SDS011;65656;51.130;13.658;2023-04-21T00:06:26;42.78;;;38.53;;
76731;SDS011;65656;51.130;13.658;2023-04-21T00:10:28;42.63;;;38.50;;
76731;SDS011;65656;51.130;13.658;2023-04-21T00:14:29;46.47;;;42.05;;
76731;SDS011;65656;51.130;13.658;2023-04-21T00:18:32;57.63;;;53.17;;
76731;SDS011;65656;51.130;13.658;2023-04-21T00:22:34;50.47;;;45.92;;
76731;SDS011;65656;51.130;13.658;2023-04-21T00:26:35;41.28;;;37.17;;
76731;SDS011;65656;51.130;13.658;2023-04-21T00:30:37;58.17;;;53.47;;
76731;SDS011;65656;51.130;13.658;2023-04-21T00:34:40;47.10;;;42.92;;
76731;SDS011;65656;51.130;13.658;2023-04-21T00:38:41;43.90;;;37.17;;
76731;SDS011;65656;51.130;13.658;2023-04-21T00:42:43;59.75;;;54.78;;
76731;SDS011;65656;51.130;13.658;2023-04-21T00:46:44;41.70;;;37.60;;
76731;SDS011;65656;51.130;13.658;2023-04-21T00:50:47;40.80;;;36.95;;
76731;SDS011;65656;51.130;13.658;2023-04-21T00:54:48;39.55;;;35.65;;
76731;SDS011;65656;51.130;13.658;2023-04-21T00:58:50;36.95;;;33.10;;
76731;SDS011;65656;51.130;13.658;2023-04-21T01:02:53;36.22;;;29.98;;
76731;SDS011;65656;51.130;13.658;2023-04-21T01:06:57;40.22;;;35.88;;
76731;SDS011;65656;51.130;13.658;2023-04-21T01:10:58;36.33;;;32.70;;
76731;SDS011;65656;51.130;13.658;2023-04-21T01:15:00;41.35;;;37.38;;
76731;SDS011;65656;51.130;13.658;2023-04-21T01:19:01;38.30;;;24.58;;
76731;SDS011;65656;51.130;13.658;2023-04-21T01:23:04;41.25;;;37.63;;
76731;SDS011;65656;51.130;13.658;2023-04-21T01:27:09;33.53;;;29.42;;
76731;SDS011;65656;51.130;13.658;2023-04-21T01:35:13;40.22;;;36.53;;
76731;SDS011;65656;51.130;13.658;2023-04-21T01:39:16;42.50;;;38.60;;
76731;SDS011;65656;51.130;13.658;2023-04-21T01:43:19;48.22;;;44.00;;
76731;SDS011;65656;51.130;13.658;2023-04-21T01:47:23;43.40;;;38.97;;
76731;SDS011;65656;51.130;13.658;2023-04-21T01:51:25;42.15;;;38.45;;
76731;SDS011;65656;51.130;13.658;2023-04-21T01:55:28;63.33;;;59.10;;
76731;SDS011;65656;51.130;13.658;2023-04-21T01:59:30;40.33;;;36.13;;
76731;SDS011;65656;51.130;13.658;2023-04-21T02:03:31;44.88;;;41.20;;
76731;SDS011;65656;51.130;13.658;2023-04-21T02:07:33;27.80;;;22.52;;
76731;SDS011;65656;51.130;13.658;2023-04-21T02:11:36;47.22;;;43.03;;
76731;SDS011;65656;51.130;13.658;2023-04-21T02:15:37;44.33;;;40.80;;
76731;SDS011;65656;51.130;13.658;2023-04-21T02:19:39;45.17;;;41.22;;
76731;SDS011;65656;51.130;13.658;2023-04-21T02:23:40;43.60;;;39.63;;
76731;SDS011;65656;51.130;13.658;2023-04-21T02:27:43;44.17;;;40.35;;
76731;SDS011;65656;51.130;13.658;2023-04-21T02:31:44;41.10;;;37.58;;
76731;SDS011;65656;51.130;13.658;2023-04-21T02:36:03;39.03;;;35.47;;
76731;SDS011;65656;51.130;13.658;2023-04-21T02:40:06;40.10;;;36.95;;
76731;SDS011;65656;51.130;13.658;2023-04-21T02:44:09;35.55;;;32.28;;
76731;SDS011;65656;51.130;13.658;2023-04-21T02:48:11;42.92;;;38.85;;
76731;SDS011;65656;51.130;13.658;2023-04-21T02:52:12;41.05;;;37.47;;
76731;SDS011;65656;51.130;13.658;2023-04-21T02:56:14;34.05;;;30.52;;
76731;SDS011;65656;51.130;13.658;2023-04-21T03:00:17;36.30;;;32.95;;
76731;SDS011;65656;51.130;13.658;2023-04-21T03:04:18;34.88;;;31.80;;
76731;SDS011;65656;51.130;13.658;2023-04-21T03:08:20;39.83;;;36.15;;
76731;SDS011;65656;51.130;13.658;2023-04-21T03:12:22;44.95;;;40.63;;
76731;SDS011;65656;51.130;13.658;2023-04-21T03:16:24;39.30;;;36.10;;
76731;SDS011;65656;51.130;13.658;2023-04-21T03:20:26;39.72;;;36.50;;
76731;SDS011;65656;51.130;13.658;2023-04-21T03:24:27;27.15;;;24.30;;
76731;SDS011;65656;51.130;13.658;2023-04-21T03:28:29;41.00;;;37.65;;
76731;SDS011;65656;51.130;13.658;2023-04-21T03:32:32;48.83;;;45.08;;
76731;SDS011;65656;51.130;13.658;2023-04-21T03:36:33;25.73;;;21.48;;
76731;SDS011;65656;51.130;13.658;2023-04-21T03:40:35;39.42;;;36.42;;
76731;SDS011;65656;51.130;13.658;2023-04-21T03:44:37;45.85;;;42.28;;
76731;SDS011;65656;51.130;13.658;2023-04-21T03:48:40;46.10;;;42.60;;
76731;SDS011;65656;51.130;13.658;2023-04-21T03:52:41;44.45;;;40.92;;
76731;SDS011;65656;51.130;13.658;2023-04-21T03:56:43;52.08;;;48.35;;
76731;SDS011;65656;51.130;13.658;2023-04-21T04:00:44;51.50;;;47.38;;
76731;SDS011;65656;51.130;13.658;2023-04-21T04:04:47;62.50;;;58.08;;
76731;SDS011;65656;51.130;13.658;2023-04-21T04:08:48;55.13;;;50.85;;
76731;SDS011;65656;51.130;13.658;2023-04-21T04:12:50;65.70;;;61.45;;
76731;SDS011;65656;51.130;13.658;2023-04-21T04:16:51;47.20;;;43.17;;
76731;SDS011;65656;51.130;13.658;2023-04-21T04:20:54;45.70;;;41.95;;
76731;SDS011;65656;51.130;13.658;2023-04-21T04:24:56;48.65;;;44.92;;
76731;SDS011;65656;51.130;13.658;2023-04-21T04:28:57;45.47;;;41.58;;
76731;SDS011;65656;51.130;13.658;2023-04-21T04:32:58;54.70;;;49.92;;
76731;SDS011;65656;51.130;13.658;2023-04-21T04:37:01;50.05;;;45.67;;
76731;SDS011;65656;51.130;13.658;2023-04-21T04:41:03;32.05;;;25.70;;
76731;SDS011;65656;51.130;13.658;2023-04-21T04:45:05;57.22;;;52.80;;
76731;SDS011;65656;51.130;13.658;2023-04-21T04:49:07;53.70;;;49.03;;
76731;SDS011;65656;51.130;13.658;2023-04-21T04:53:09;44.33;;;40.30;;
76731;SDS011;65656;51.130;13.658;2023-04-21T04:57:11;46.63;;;42.92;;
76731;SDS011;65656;51.130;13.658;2023-04-21T05:01:12;33.20;;;28.15;;
76731;SDS011;65656;51.130;13.658;2023-04-21T05:05:15;51.58;;;47.40;;
76731;SDS011;65656;51.130;13.658;2023-04-21T05:09:18;62.35;;;57.45;;
76731;SDS011;65656;51.130;13.658;2023-04-21T05:13:19;50.90;;;46.70;;
76731;SDS011;65656;51.130;13.658;2023-04-21T05:17:21;47.20;;;43.25;;
76731;SDS011;65656;51.130;13.658;2023-04-21T05:21:22;44.45;;;40.30;;
76731;SDS011;65656;51.130;13.658;2023-04-21T05:25:26;43.58;;;39.47;;
76731;SDS011;65656;51.130;13.658;2023-04-21T05:29:27;50.75;;;46.13;;
76731;SDS011;65656;51.130;13.658;2023-04-21T05:33:29;54.78;;;50.22;;
76731;SDS011;65656;51.130;13.658;2023-04-21T05:37:30;48.33;;;43.80;;
76731;SDS011;65656;51.130;13.658;2023-04-21T05:41:33;57.53;;;52.45;;
76731;SDS011;65656;51.130;13.658;2023-04-21T05:45:37;45.63;;;41.22;;
76731;SDS011;65656;51.130;13.658;2023-04-21T05:49:39;43.95;;;40.05;;
76731;SDS011;65656;51.130;13.658;2023-04-21T05:53:41;44.47;;;40.50;;
76731;SDS011;65656;51.130;13.658;2023-04-21T05:57:44;46.72;;;43.25;;
76731;SDS011;65656;51.130;13.658;2023-04-21T06:01:46;39.30;;;35.63;;
76731;SDS011;65656;51.130;13.658;2023-04-21T06:05:51;29.08;;;26.10;;
76731;SDS011;65656;51.130;13.658;2023-04-21T06:09:54;36.67;;;33.33;;
76731;SDS011;65656;51.130;13.658;2023-04-21T06:13:56;25.75;;;23.33;;
76731;SDS011;65656;51.130;13.658;2023-04-21T06:17:58;24.33;;;20.55;;
76731;SDS011;65656;51.130;13.658;2023-04-21T06:21:59;42.10;;;38.70;;
76731;SDS011;65656;51.130;13.658;2023-04-21T06:26:01;26.48;;;19.33;;
76731;SDS011;65656;51.130;13.658;2023-04-21T06:30:06;31.83;;;28.90;;
76731;SDS011;65656;51.130;13.658;2023-04-21T06:34:08;35.67;;;32.92;;
76731;SDS011;65656;51.130;13.658;2023-04-21T06:38:09;43.72;;;39.88;;
76731;SDS011;65656;51.130;13.658;2023-04-21T06:42:11;29.02;;;26.45;;
76731;SDS011;65656;51.130;13.658;2023-04-21T06:46:14;33.70;;;31.17;;
76731;SDS011;65656;51.130;13.658;2023-04-21T06:50:15;41.33;;;37.88;;
76731;SDS011;65656;51.130;13.658;2023-04-21T06:54:17;33.58;;;31.13;;
76731;SDS011;65656;51.130;13.658;2023-04-21T06:58:19;29.55;;;27.27;;
76731;SDS011;65656;51.130;13.658;2023-04-21T07:02:23;27.70;;;25.45;;
76731;SDS011;65656;51.130;13.658;2023-04-21T07:06:24;29.70;;;27.50;;
76731;SDS011;65656;51.130;13.658;2023-04-21T07:10:27;26.35;;;24.38;;
76731;SDS011;65656;51.130;13.658;2023-04-21T07:14:28;22.17;;;17.77;;
76731;SDS011;65656;51.130;13.658;2023-04-21T07:18:31;27.02;;;24.42;;
76731;SDS011;65656;51.130;13.658;2023-04-21T07:22:33;22.95;;;19.45;;
76731;SDS011;65656;51.130;13.658;2023-04-21T07:26:34;14.77;;;11.95;;
76731;SDS011;65656;51.130;13.658;2023-04-21T07:30:36;24.23;;;22.17;;
76731;SDS011;65656;51.130;13.658;2023-04-21T07:34:39;26.58;;;24.70;;
76731;SDS011;65656;51.130;13.658;2023-04-21T07:38:40;26.40;;;24.45;;
76731;SDS011;65656;51.130;13.658;2023-04-21T07:42:41;13.70;;;12.10;;
76731;SDS011;65656;51.130;13.658;2023-04-21T07:46:43;21.80;;;19.92;;
76731;SDS011;65656;51.130;13.658;2023-04-21T07:50:46;27.63;;;25.77;;
76731;SDS011;65656;51.130;13.658;2023-04-21T07:54:48;15.38;;;13.82;;
76731;SDS011;65656;51.130;13.658;2023-04-21T07:58:49;16.45;;;14.82;;
76731;SDS011;65656;51.130;13.658;2023-04-21T08:02:52;19.88;;;18.45;;
76731;SDS011;65656;51.130;13.658;2023-04-21T08:06:55;28.17;;;26.48;;
76731;SDS011;65656;51.130;13.658;2023-04-21T08:10:57;24.77;;;22.75;;
76731;SDS011;65656;51.130;13.658;2023-04-21T08:14:58;21.05;;;19.33;;
76731;SDS011;65656;51.130;13.658;2023-04-21T08:19:00;21.25;;;19.42;;
76731;SDS011;65656;51.130;13.658;2023-04-21T08:23:02;24.33;;;22.63;;
76731;SDS011;65656;51.130;13.658;2023-04-21T08:27:04;19.52;;;18.10;;
76731;SDS011;65656;51.130;13.658;2023-04-21T08:31:06;17.48;;;16.15;;
76731;SDS011;65656;51.130;13.658;2023-04-21T08:35:07;17.42;;;16.05;;
76731;SDS011;65656;51.130;13.658;2023-04-21T08:39:11;25.30;;;23.70;;
76731;SDS011;65656;51.130;13.658;2023-04-21T08:43:12;17.95;;;16.90;;
76731;SDS011;65656;51.130;13.658;2023-04-21T08:47:14;17.15;;;15.63;;
76731;SDS011;65656;51.130;13.658;2023-04-21T08:51:18;18.63;;;17.13;;
76731;SDS011;65656;51.130;13.658;2023-04-21T08:55:24;14.20;;;13.00;;
76731;SDS011;65656;51.130;13.658;2023-04-21T08:59:26;18.33;;;16.88;;
76731;SDS011;65656;51.130;13.658;2023-04-21T09:03:28;13.23;;;11.63;;
76731;SDS011;65656;51.130;13.658;2023-04-21T09:07:30;12.95;;;11.60;;
76731;SDS011;65656;51.130;13.658;2023-04-21T09:11:34;16.00;;;14.95;;
76731;SDS011;65656;51.130;13.658;2023-04-21T09:15:39;15.00;;;13.60;;
76731;SDS011;65656;51.130;13.658;2023-04-21T09:19:40;14.63;;;13.63;;
76731;SDS011;65656;51.130;13.658;2023-04-21T09:23:42;13.27;;;11.68;;
76731;SDS011;65656;51.130;13.658;2023-04-21T09:27:46;13.85;;;12.85;;
76731;SDS011;65656;51.130;13.658;2023-04-21T09:31:48;16.00;;;14.90;;
76731;SDS011;65656;51.130;13.658;2023-04-21T09:35:50;16.70;;;15.48;;
76731;SDS011;65656;51.130;13.658;2023-04-21T09:39:52;10.43;;;9.45;;
76731;SDS011;65656;51.130;13.658;2023-04-21T09:44:06;11.02;;;10.18;;
76731;SDS011;65656;51.130;13.658;2023-04-21T09:48:07;13.35;;;12.38;;
76731;SDS011;65656;51.130;13.658;2023-04-21T09:52:10;13.95;;;12.88;;
76731;SDS011;65656;51.130;13.658;2023-04-21T09:56:20;10.13;;;6.07;;
76731;SDS011;65656;51.130;13.658;2023-04-21T10:00:23;12.32;;;11.10;;
76731;SDS011;65656;51.130;13.658;2023-04-21T10:04:26;13.00;;;12.02;;
76731;SDS011;65656;51.130;13.658;2023-04-21T10:08:29;14.45;;;13.15;;
76731;SDS011;65656;51.130;13.658;2023-04-21T10:12:32;11.05;;;10.07;;
76731;SDS011;65656;51.130;13.658;2023-04-21T10:16:35;10.65;;;9.07;;
76731;SDS011;65656;51.130;13.658;2023-04-21T10:20:49;13.85;;;12.95;;
76731;SDS011;65656;51.130;13.658;2023-04-21T10:24:51;15.27;;;13.85;;
76731;SDS011;65656;51.130;13.658;2023-04-21T10:28:56;11.07;;;10.07;;
76731;SDS011;65656;51.130;13.658;2023-04-21T10:33:03;9.93;;;9.13;;
76731;SDS011;65656;51.130;13.658;2023-04-21T10:37:11;18.77;;;17.58;;
76731;SDS011;65656;51.130;13.658;2023-04-21T10:41:25;13.68;;;12.60;;
76731;SDS011;65656;51.130;13.658;2023-04-21T10:55:05;12.70;;;11.80;;
76731;SDS011;65656;51.130;13.658;2023-04-21T10:59:10;5.88;;;5.07;;
76731;SDS011;65656;51.130;13.658;2023-04-21T11:03:12;8.65;;;7.95;;
76731;SDS011;65656;51.130;13.658;2023-04-21T11:07:14;7.40;;;5.03;;
76731;SDS011;65656;51.130;13.658;2023-04-21T11:11:21;12.18;;;6.10;;
76731;SDS011;65656;51.130;13.658;2023-04-21T11:15:24;6.63;;;5.55;;
76731;SDS011;65656;51.130;13.658;2023-04-21T11:19:25;9.77;;;8.27;;
76731;SDS011;65656;51.130;13.658;2023-04-21T11:23:27;8.00;;;4.88;;
76731;SDS011;65656;51.130;13.658;2023-04-21T11:27:29;8.90;;;8.10;;
76731;SDS011;65656;51.130;13.658;2023-04-21T11:31:31;7.20;;;6.50;;
76731;SDS011;65656;51.130;13.658;2023-04-21T11:35:33;9.77;;;5.57;;
76731;SDS011;65656;51.130;13.658;2023-04-21T11:39:40;8.25;;;7.45;;
76731;SDS011;65656;51.130;13.658;2023-04-21T11:43:44;7.63;;;5.07;;
76731;SDS011;65656;51.130;13.658;2023-04-21T11:47:46;9.40;;;5.88;;
76731;SDS011;65656;51.130;13.658;2023-04-21T11:51:48;6.82;;;6.07;;
76731;SDS011;65656;51.130;13.658;2023-04-21T11:55:50;8.88;;;5.85;;
76731;SDS011;65656;51.130;13.658;2023-04-21T11:59:53;7.88;;;5.25;;
76731;SDS011;65656;51.130;13.658;2023-04-21T12:03:55;5.68;;;4.22;;
76731;SDS011;65656;51.130;13.658;2023-04-21T12:07:56;7.13;;;5.57;;
76731;SDS011;65656;51.130;13.658;2023-04-21T12:11:58;8.38;;;7.38;;
76731;SDS011;65656;51.130;13.658;2023-04-21T12:16:02;10.98;;;8.95;;
76731;SDS011;65656;51.130;13.658;2023-04-21T12:20:04;14.90;;;7.93;;
76731;SDS011;65656;51.130;13.658;2023-04-21T12:24:07;11.60;;;10.63;;
76731;SDS011;65656;51.130;13.658;2023-04-21T12:28:09;6.25;;;5.43;;
76731;SDS011;65656;51.130;13.658;2023-04-21T12:32:12;10.57;;;7.40;;
76731;SDS011;65656;51.130;13.658;2023-04-21T12:36:14;7.15;;;4.25;;
76731;SDS011;65656;51.130;13.658;2023-04-21T12:40:15;16.58;;;6.00;;
76731;SDS011;65656;51.130;13.658;2023-04-21T12:44:17;8.95;;;5.82;;
76731;SDS011;65656;51.130;13.658;2023-04-21T12:48:20;7.15;;;5.00;;
76731;SDS011;65656;51.130;13.658;2023-04-21T12:52:22;7.82;;;7.15;;
76731;SDS011;65656;51.130;13.658;2023-04-21T12:56:23;8.50;;;5.07;;
76731;SDS011;65656;51.130;13.658;2023-04-21T13:00:25;6.88;;;3.53;;
76731;SDS011;65656;51.130;13.658;2023-04-21T13:04:27;10.15;;;4.43;;
76731;SDS011;65656;51.130;13.658;2023-04-21T13:08:29;6.00;;;4.55;;
76731;SDS011;65656;51.130;13.658;2023-04-21T13:12:31;9.13;;;7.70;;
76731;SDS011;65656;51.130;13.658;2023-04-21T13:16:33;7.93;;;7.22;;
76731;SDS011;65656;51.130;13.658;2023-04-21T13:20:35;7.60;;;7.00;;
76731;SDS011;65656;51.130;13.658;2023-04-21T13:24:37;7.05;;;5.57;;
76731;SDS011;65656;51.130;13.658;2023-04-21T13:28:38;7.15;;;6.55;;
76731;SDS011;65656;51.130;13.658;2023-04-21T13:32:40;8.23;;;7.50;;
76731;SDS011;65656;51.130;13.658;2023-04-21T13:36:43;9.00;;;5.85;;
76731;SDS011;65656;51.130;13.658;2023-04-21T13:40:45;8.50;;;6.72;;
76731;SDS011;65656;51.130;13.658;2023-04-21T13:44:46;9.10;;;5.88;;
76731;SDS011;65656;51.130;13.658;2023-04-21T13:48:48;11.00;;;8.15;;
76731;SDS011;65656;51.130;13.658;2023-04-21T13:52:51;9.82;;;5.70;;
76731;SDS011;65656;51.130;13.658;2023-04-21T13:56:52;7.38;;;5.15;;
76731;SDS011;65656;51.130;13.658;2023-04-21T14:00:54;7.10;;;6.40;;
76731;SDS011;65656;51.130;13.658;2023-04-21T14:04:55;7.43;;;5.38;;
76731;SDS011;65656;51.130;13.658;2023-04-21T14:08:59;7.07;;;5.00;;
76731;SDS011;65656;51.130;13.658;2023-04-21T14:13:01;9.63;;;8.38;;
76731;SDS011;65656;51.130;13.658;2023-04-21T14:17:03;9.38;;;5.22;;
76731;SDS011;65656;51.130;13.658;2023-04-21T14:21:04;14.85;;;7.82;;
76731;SDS011;65656;51.130;13.658;2023-04-21T14:25:08;10.88;;;6.25;;
76731;SDS011;65656;51.130;13.658;2023-04-21T14:29:09;7.38;;;6.05;;
76731;SDS011;65656;51.130;13.658;2023-04-21T14:33:11;9.65;;;8.85;;
76731;SDS011;65656;51.130;13.658;2023-04-21T14:37:12;12.20;;;11.20;;
76731;SDS011;65656;51.130;13.658;2023-04-21T14:41:15;9.88;;;9.00;;
76731;SDS011;65656;51.130;13.658;2023-04-21T14:45:17;8.75;;;7.78;;
76731;SDS011;65656;51.130;13.658;2023-04-21T14:49:18;10.55;;;9.48;;
76731;SDS011;65656;51.130;13.658;2023-04-21T14:53:20;9.65;;;6.78;;
76731;SDS011;65656;51.130;13.658;2023-04-21T14:57:23;7.88;;;6.43;;
76731;SDS011;65656;51.130;13.658;2023-04-21T15:01:25;9.48;;;8.55;;
76731;SDS011;65656;51.130;13.658;2023-04-21T15:05:26;8.50;;;7.70;;
76731;SDS011;65656;51.130;13.658;2023-04-21T15:09:28;9.20;;;8.27;;
76731;SDS011;65656;51.130;13.658;2023-04-21T15:13:31;9.55;;;8.65;;
76731;SDS011;65656;51.130;13.658;2023-04-21T15:17:33;14.63;;;12.52;;
76731;SDS011;65656;51.130;13.658;2023-04-21T15:21:34;9.52;;;8.65;;
76731;SDS011;65656;51.130;13.658;2023-04-21T15:25:36;11.82;;;10.80;;
76731;SDS011;65656;51.130;13.658;2023-04-21T15:29:38;14.43;;;13.07;;
76731;SDS011;65656;51.130;13.658;2023-04-21T15:33:40;12.73;;;11.52;;
76731;SDS011;65656;51.130;13.658;2023-04-21T15:37:41;10.50;;;9.63;;
76731;SDS011;65656;51.130;13.658;2023-04-21T15:41:43;10.05;;;9.02;;
76731;SDS011;65656;51.130;13.658;2023-04-21T15:45:46;11.13;;;9.80;;
76731;SDS011;65656;51.130;13.658;2023-04-21T15:49:47;12.50;;;10.48;;
76731;SDS011;65656;51.130;13.658;2023-04-21T15:53:49;14.52;;;9.27;;
76731;SDS011;65656;51.130;13.658;2023-04-21T15:57:50;13.18;;;11.95;;
76731;SDS011;65656;51.130;13.658;2023-04-21T16:01:53;16.00;;;14.80;;
76731;SDS011;65656;51.130;13.658;2023-04-21T16:05:55;12.30;;;11.10;;
76731;SDS011;65656;51.130;13.658;2023-04-21T16:09:57;14.05;;;12.57;;
76731;SDS011;65656;51.130;13.658;2023-04-21T16:13:59;9.80;;;8.90;;
76731;SDS011;65656;51.130;13.658;2023-04-21T16:18:01;13.65;;;12.52;;
76731;SDS011;65656;51.130;13.658;2023-04-21T16:22:03;10.02;;;8.77;;
76731;SDS011;65656;51.130;13.658;2023-04-21T16:26:05;14.77;;;11.25;;
76731;SDS011;65656;51.130;13.658;2023-04-21T16:30:07;19.02;;;9.57;;
76731;SDS011;65656;51.130;13.658;2023-04-21T16:34:10;12.60;;;11.45;;
76731;SDS011;65656;51.130;13.658;2023-04-21T16:38:11;14.60;;;13.20;;
76731;SDS011;65656;51.130;13.658;2023-04-21T16:42:13;13.25;;;12.23;;
76731;SDS011;65656;51.130;13.658;2023-04-21T16:46:14;11.98;;;10.88;;
76731;SDS011;65656;51.130;13.658;2023-04-21T16:50:17;14.13;;;12.20;;
76731;SDS011;65656;51.130;13.658;2023-04-21T16:54:19;10.90;;;9.80;;
76731;SDS011;65656;51.130;13.658;2023-04-21T16:58:20;14.32;;;13.10;;
76731;SDS011;65656;51.130;13.658;2023-04-21T17:02:22;14.50;;;13.30;;
76731;SDS011;65656;51.130;13.658;2023-04-21T17:06:25;12.35;;;11.05;;
76731;SDS011;65656;51.130;13.658;2023-04-21T17:10:26;12.63;;;11.43;;
76731;SDS011;65656;51.130;13.658;2023-04-21T17:14:28;10.80;;;9.77;;
76731;SDS011;65656;51.130;13.658;2023-04-21T17:18:29;15.73;;;14.38;;
76731;SDS011;65656;51.130;13.658;2023-04-21T17:22:32;14.88;;;13.50;;
76731;SDS011;65656;51.130;13.658;2023-04-21T17:26:33;17.48;;;14.73;;
76731;SDS011;65656;51.130;13.658;2023-04-21T17:30:35;13.45;;;12.20;;
76731;SDS011;65656;51.130;13.658;2023-04-21T17:34:37;14.13;;;11.35;;
76731;SDS011;65656;51.130;13.658;2023-04-21T17:38:40;12.50;;;11.48;;
76731;SDS011;65656;51.130;13.658;2023-04-21T17:42:42;14.30;;;13.00;;
76731;SDS011;65656;51.130;13.658;2023-04-21T17:46:43;15.15;;;13.68;;
76731;SDS011;65656;51.130;13.658;2023-04-21T17:50:45;15.98;;;14.57;;
76731;SDS011;65656;51.130;13.658;2023-04-21T17:54:48;13.02;;;11.10;;
76731;SDS011;65656;51.130;13.658;2023-04-21T17:58:49;14.10;;;13.00;;
76731;SDS011;65656;51.130;13.658;2023-04-21T18:02:51;16.45;;;14.82;;
76731;SDS011;65656;51.130;13.658;2023-04-21T18:06:52;12.65;;;11.43;;
76731;SDS011;65656;51.130;13.658;2023-04-21T18:10:55;19.00;;;17.48;;
76731;SDS011;65656;51.130;13.658;2023-04-21T18:14:56;12.88;;;11.77;;
76731;SDS011;65656;51.130;13.658;2023-04-21T18:18:58;14.38;;;12.40;;
76731;SDS011;65656;51.130;13.658;2023-04-21T18:22:59;16.15;;;14.82;;
76731;SDS011;65656;51.130;13.658;2023-04-21T18:27:02;18.08;;;16.50;;
76731;SDS011;65656;51.130;13.658;2023-04-21T18:31:04;18.23;;;16.90;;
76731;SDS011;65656;51.130;13.658;2023-04-21T18:35:06;15.55;;;14.25;;
76731;SDS011;65656;51.130;13.658;2023-04-21T18:39:08;13.23;;;11.98;;
76731;SDS011;65656;51.130;13.658;2023-04-21T18:43:11;13.07;;;11.65;;
76731;SDS011;65656;51.130;13.658;2023-04-21T18:47:12;20.40;;;18.83;;
76731;SDS011;65656;51.130;13.658;2023-04-21T18:51:14;15.45;;;14.10;;
76731;SDS011;65656;51.130;13.658;2023-04-21T18:55:15;14.88;;;13.65;;
76731;SDS011;65656;51.130;13.658;2023-04-21T18:59:18;15.05;;;13.57;;
76731;SDS011;65656;51.130;13.658;2023-04-21T19:03:20;14.65;;;13.32;;
76731;SDS011;65656;51.130;13.658;2023-04-21T19:07:21;22.85;;;21.25;;
76731;SDS011;65656;51.130;13.658;2023-04-21T19:11:23;22.80;;;21.20;;
76731;SDS011;65656;51.130;13.658;2023-04-21T19:15:26;16.55;;;14.95;;
76731;SDS011;65656;51.130;13.658;2023-04-21T19:19:27;18.55;;;17.10;;
76731;SDS011;65656;51.130;13.658;2023-04-21T19:23:29;19.33;;;17.67;;
76731;SDS011;65656;51.130;13.658;2023-04-21T19:27:30;25.52;;;23.48;;
76731;SDS011;65656;51.130;13.658;2023-04-21T19:31:33;20.15;;;18.30;;
76731;SDS011;65656;51.130;13.658;2023-04-21T19:35:35;19.30;;;17.67;;
76731;SDS011;65656;51.130;13.658;2023-04-21T19:39:36;20.35;;;18.45;;
76731;SDS011;65656;51.130;13.658;2023-04-21T19:43:37;19.80;;;18.02;;
76731;SDS011;65656;51.130;13.658;2023-04-21T19:47:40;21.42;;;19.70;;
76731;SDS011;65656;51.130;13.658;2023-04-21T19:51:42;25.77;;;24.00;;
76731;SDS011;65656;51.130;13.658;2023-04-21T19:55:43;19.38;;;17.75;;
76731;SDS011;65656;51.130;13.658;2023-04-21T19:59:45;16.65;;;15.32;;
76731;SDS011;65656;51.130;13.658;2023-04-21T20:03:47;20.17;;;18.55;;
76731;SDS011;65656;51.130;13.658;2023-04-21T20:07:49;16.63;;;15.00;;
76731;SDS011;65656;51.130;13.658;2023-04-21T20:11:51;16.10;;;14.48;;
76731;SDS011;65656;51.130;13.658;2023-04-21T20:15:52;19.02;;;17.52;;
76731;SDS011;65656;51.130;13.658;2023-04-21T20:19:55;19.08;;;17.50;;
76731;SDS011;65656;51.130;13.658;2023-04-21T20:23:57;18.65;;;17.00;;
76731;SDS011;65656;51.130;13.658;2023-04-21T20:27:58;17.20;;;15.70;;
76731;SDS011;65656;51.130;13.658;2023-04-21T20:32:00;21.52;;;19.65;;
76731;SDS011;65656;51.130;13.658;2023-04-21T20:36:03;18.05;;;16.55;;
76731;SDS011;65656;51.130;13.658;2023-04-21T20:40:05;15.75;;;12.65;;
76731;SDS011;65656;51.130;13.658;2023-04-21T20:44:07;17.52;;;15.93;;
76731;SDS011;65656;51.130;13.658;2023-04-21T20:48:08;15.70;;;14.07;;
76731;SDS011;65656;51.130;13.658;2023-04-21T20:52:11;16.40;;;14.93;;
76731;SDS011;65656;51.130;13.658;2023-04-21T20:56:13;15.05;;;13.60;;
76731;SDS011;65656;51.130;13.658;2023-04-21T21:00:14;19.23;;;17.63;;
76731;SDS011;65656;51.130;13.658;2023-04-21T21:04:16;15.52;;;12.85;;
76731;SDS011;65656;51.130;13.658;2023-04-21T21:08:19;18.95;;;17.17;;
76731;SDS011;65656;51.130;13.658;2023-04-21T21:12:21;16.27;;;14.75;;
76731;SDS011;65656;51.130;13.658;2023-04-21T21:16:22;19.00;;;17.40;;
76731;SDS011;65656;51.130;13.658;2023-04-21T21:20:24;14.52;;;12.93;;
76731;SDS011;65656;51.130;13.658;2023-04-21T21:24:27;13.88;;;12.60;;
76731;SDS011;65656;51.130;13.658;2023-04-21T21:28:28;18.58;;;16.98;;
76731;SDS011;65656;51.130;13.658;2023-04-21T21:32:30;18.42;;;17.05;;
76731;SDS011;65656;51.130;13.658;2023-04-21T21:36:31;17.08;;;15.45;;
76731;SDS011;65656;51.130;13.658;2023-04-21T21:40:34;15.88;;;14.38;;
76731;SDS011;65656;51.130;13.658;2023-04-21T21:44:36;16.33;;;14.70;;
76731;SDS011;65656;51.130;13.658;2023-04-21T21:48:37;18.25;;;16.55;;
76731;SDS011;65656;51.130;13.658;2023-04-21T21:52:38;12.30;;;11.20;;
76731;SDS011;65656;51.130;13.658;2023-04-21T21:56:41;14.70;;;13.30;;
76731;SDS011;65656;51.130;13.658;2023-04-21T22:00:43;20.33;;;18.50;;
76731;SDS011;65656;51.130;13.658;2023-04-21T22:04:44;15.57;;;14.30;;
76731;SDS011;65656;51.130;13.658;2023-04-21T22:08:46;15.38;;;13.95;;
76731;SDS011;65656;51.130;13.658;2023-04-21T22:12:49;20.08;;;18.23;;
76731;SDS011;65656;51.130;13.658;2023-04-21T22:16:50;15.23;;;13.63;;
76731;SDS011;65656;51.130;13.658;2023-04-21T22:20:52;17.83;;;16.35;;
76731;SDS011;65656;51.130;13.658;2023-04-21T22:24:53;17.95;;;16.33;;
76731;SDS011;65656;51.130;13.658;2023-04-21T22:28:56;16.73;;;15.05;;
76731;SDS011;65656;51.130;13.658;2023-04-21T22:32:57;19.05;;;17.23;;
76731;SDS011;65656;51.130;13.658;2023-04-21T22:36:59;19.40;;;17.90;;
76731;SDS011;65656;51.130;13.658;2023-04-21T22:41:00;18.50;;;16.85;;
76731;SDS011;65656;51.130;13.658;2023-04-21T22:45:03;16.92;;;15.25;;
76731;SDS011;65656;51.130;13.658;2023-04-21T22:49:05;20.70;;;19.00;;
76731;SDS011;65656;51.130;13.658;2023-04-21T22:53:07;13.77;;;12.55;;
76731;SDS011;65656;51.130;13.658;2023-04-21T22:57:08;17.45;;;15.85;;
76731;SDS011;65656;51.130;13.658;2023-04-21T23:01:11;16.08;;;14.50;;
76731;SDS011;65656;51.130;13.658;2023-04-21T23:05:13;16.25;;;14.70;;
76731;SDS011;65656;51.130;13.658;2023-04-21T23:09:15;15.77;;;14.23;;
76731;SDS011;65656;51.130;13.658;2023-04-21T23:13:16;17.70;;;15.68;;
76731;SDS011;65656;51.130;13.658;2023-04-21T23:17:19;18.83;;;17.23;;
76731;SDS011;65656;51.130;13.658;2023-04-21T23:21:20;15.40;;;13.95;;
76731;SDS011;65656;51.130;13.658;2023-04-21T23:25:22;17.15;;;13.80;;
76731;SDS011;65656;51.130;13.658;2023-04-21T23:29:24;18.48;;;16.65;;
76731;SDS011;65656;51.130;13.658;2023-04-21T23:33:26;14.02;;;12.60;;
76731;SDS011;65656;51.130;13.658;2023-04-21T23:37:28;14.02;;;12.73;;